»·PEaware :: ASA342 KSEA-KPDX

ASA342 :: KSEA-KPDX

FLIGHT INFORMATION

Flight Status: Arrived
Operator:
Alaska Airlines
More flights by this operator :: More flights under this callsign
Pilot: Aidan C. (27000)
Aircraft: BOEING 737-800
(B738)
More flights by this aircraft type
Origin: KSEA Seattle-Tacoma Intl
United States
Destination: KPDX Portland Intl
United States
More flights between these airports :: More routes between these airports
Route: SEA7 SEA BUWZO KRATR2
File this flight plan on PilotEdge
Remarks:
Altitude:
(Current/Filed)
17,000ft
Speed:
(Current/Filed)
460kts
Departed: 28-Dec-19 06:57 PM
Arrived: 28-Dec-19 07:27 PM
Distance/Time
Traveled:
112nm/0:30
Distance/Time
To Go:
Arrived

Flight Plot

Page will automatically refresh every two minutes.

Flight plan parsing failed; only flown route is shown


Map Options




Map Legend


Flown Route
Filed Route
Departure Airport
Arrival Airport
Navaid (VOR, NDB)
Fix

Horizontal Profiles

Position Reports

Time Latitude Longitude Heading Altitude Ground
Speed
28-Dec-19 18:18 47.446823 -122.304353 181 400ft 0kts
28-Dec-19 18:19 47.446823 -122.304353 181 400ft 0kts
28-Dec-19 18:20 47.446823 -122.304353 181 400ft 0kts
28-Dec-19 18:21 47.446823 -122.304353 181 400ft 0kts
28-Dec-19 18:22 47.446823 -122.304353 181 400ft 0kts
28-Dec-19 18:23 47.446823 -122.304353 181 400ft 0kts
28-Dec-19 18:24 47.446823 -122.304353 181 400ft 0kts
28-Dec-19 18:25 47.446823 -122.304353 181 400ft 0kts
28-Dec-19 18:26 47.446823 -122.304353 181 400ft 0kts
28-Dec-19 18:27 47.446823 -122.304353 181 400ft 0kts
28-Dec-19 18:28 47.446823 -122.304353 181 400ft 0kts
28-Dec-19 18:29 47.446823 -122.304353 181 400ft 0kts
28-Dec-19 18:30 47.446823 -122.304353 181 400ft 0kts
28-Dec-19 18:31 47.446823 -122.304353 181 400ft 0kts
28-Dec-19 18:32 47.446823 -122.304353 181 400ft 0kts
28-Dec-19 18:33 47.446823 -122.304353 181 400ft 0kts
28-Dec-19 18:34 47.446823 -122.304353 181 400ft 0kts
28-Dec-19 18:35 47.446823 -122.304353 181 400ft 0kts
28-Dec-19 18:36 47.446823 -122.304353 181 400ft 0kts
28-Dec-19 18:37 47.446823 -122.304353 181 400ft 0kts
28-Dec-19 18:38 47.446823 -122.304353 181 400ft 0kts
28-Dec-19 18:39 47.446823 -122.304353 181 400ft 0kts
28-Dec-19 18:40 47.446823 -122.304353 181 400ft 0kts
28-Dec-19 18:41 47.446819 -122.304353 181 400ft 0kts
28-Dec-19 18:42 47.446819 -122.304353 181 400ft 0kts
28-Dec-19 18:43 47.447137 -122.304335 193 401ft 2kts
28-Dec-19 18:44 47.447408 -122.303744 280 401ft 2kts
28-Dec-19 18:45 47.447309 -122.303446 307 400ft 0kts
28-Dec-19 18:46 47.447309 -122.303446 307 400ft 0kts
28-Dec-19 18:47 47.447311 -122.303449 307 400ft 0kts
28-Dec-19 18:48 47.448221 -122.306253 356 404ft 7kts
28-Dec-19 18:49 47.451813 -122.305024 0 421ft 19kts
28-Dec-19 18:50 47.456921 -122.304980 0 445ft 21kts
28-Dec-19 18:51 47.463307 -122.305675 319 427ft 17kts
28-Dec-19 18:52 47.463634 -122.306212 297 420ft 0kts
28-Dec-19 18:53 47.463634 -122.306212 297 420ft 0kts
28-Dec-19 18:54 47.463634 -122.306212 297 420ft 0kts
28-Dec-19 18:55 47.463711 -122.306434 295 418ft 8kts
28-Dec-19 18:56 47.460837 -122.307777 180 431ft 73kts
28-Dec-19 18:57 47.421365 -122.308618 181 1878ft 198kts
28-Dec-19 18:58 47.357662 -122.305869 175 4336ft 260kts
28-Dec-19 18:59 47.283693 -122.308280 184 7906ft 275kts
28-Dec-19 19:00 47.205449 -122.309659 181 11148ft 292kts
28-Dec-19 19:02 47.125121 -122.309622 181 14471ft 295kts
28-Dec-19 19:03 47.041845 -122.309636 181 16939ft 315kts
28-Dec-19 19:04 46.945057 -122.309637 181 16992ft 362kts
28-Dec-19 19:05 46.844786 -122.309622 181 16991ft 362kts
28-Dec-19 19:06 46.743883 -122.309619 181 16990ft 362kts
28-Dec-19 19:07 46.643304 -122.309617 181 16992ft 362kts
28-Dec-19 19:08 46.542692 -122.309614 181 16993ft 358kts
28-Dec-19 19:09 46.443102 -122.309510 184 17010ft 368kts
28-Dec-19 19:10 46.340875 -122.309586 184 15865ft 361kts
28-Dec-19 19:11 46.242278 -122.320696 197 13529ft 352kts
28-Dec-19 19:12 46.173189 -122.356292 202 12032ft 337kts
28-Dec-19 19:13 46.098167 -122.398176 202 11927ft 281kts
28-Dec-19 19:14 46.023069 -122.438830 201 9783ft 298kts
28-Dec-19 19:15 45.949804 -122.478281 200 8270ft 264kts
28-Dec-19 19:16 45.904198 -122.522171 220 7262ft 247kts
28-Dec-19 19:17 45.893701 -122.535359 220 7030ft 246kts
28-Dec-19 19:18 45.848779 -122.592355 220 5904ft 250kts
28-Dec-19 19:19 45.798383 -122.656011 220 5190ft 230kts
28-Dec-19 19:20 45.755016 -122.712378 220 3720ft 193kts
28-Dec-19 19:21 45.717696 -122.761644 220 2126ft 178kts
28-Dec-19 19:21 45.686031 -122.798008 191 1996ft 176kts
28-Dec-19 19:22 45.649234 -122.761221 119 1998ft 173kts
28-Dec-19 19:24 45.627025 -122.702709 118 1544ft 170kts
28-Dec-19 19:24 45.627025 -122.702709 118 1544ft 170kts
28-Dec-19 19:27 45.589554 -122.604469 46 40ft 0kts
28-Dec-19 19:27 45.590639 -122.602907 44 39ft 14kts
28-Dec-19 19:28 45.590660 -122.599986 154 40ft 3kts
28-Dec-19 19:29 45.590504 -122.599889 156 40ft 0kts

Navigation Log

Ident Type
Flight plan parsing failed, navigation log unavailable